createdAt,value
2018-12-05T00:29:17.543Z,1.60
2018-12-05T00:29:18.119Z,1.51
2018-12-05T00:29:18.717Z,1.60
2018-12-05T00:29:19.317Z,1.60
2018-12-05T00:29:19.917Z,1.62
2018-12-05T00:29:20.515Z,1.61
2018-12-05T00:29:21.116Z,1.50
2018-12-05T00:29:21.716Z,1.58
2018-12-05T00:30:15.199Z,1.54
2018-12-05T00:30:15.772Z,1.61
2018-12-05T00:30:16.371Z,1.60
2018-12-05T00:30:16.972Z,1.57
2018-12-05T00:30:17.571Z,1.58
2018-12-05T00:30:18.172Z,1.58
2018-12-05T00:30:18.770Z,1.58
2018-12-05T00:30:19.369Z,1.54
2018-12-05T00:31:12.851Z,1.57
2018-12-05T00:31:13.426Z,1.54
2018-12-05T00:31:14.024Z,1.55
2018-12-05T00:31:14.624Z,1.58
2018-12-05T00:31:15.223Z,1.52
2018-12-05T00:31:15.827Z,1.62
2018-12-05T00:31:16.423Z,1.55
2018-12-05T00:31:17.024Z,1.52
2018-12-05T00:32:11.525Z,1.51
2018-12-05T00:32:12.100Z,1.61
2018-12-05T00:32:12.702Z,1.60
2018-12-05T00:32:13.300Z,1.46
2018-12-05T00:32:13.899Z,1.60
2018-12-05T00:32:14.499Z,1.46
2018-12-05T00:32:15.098Z,1.52
2018-12-05T00:32:15.698Z,1.52
2018-12-05T00:33:10.202Z,1.54
2018-12-05T00:33:10.775Z,1.52
2018-12-05T00:33:11.375Z,1.52
2018-12-05T00:33:11.975Z,1.50
2018-12-05T00:33:12.574Z,1.51
2018-12-05T00:33:13.174Z,1.47
2018-12-05T00:33:13.774Z,1.52
2018-12-05T00:33:14.373Z,1.46
2018-12-05T00:34:07.854Z,1.50
2018-12-05T00:34:08.428Z,1.55
2018-12-05T00:34:09.027Z,1.50
2018-12-05T00:34:09.627Z,1.51
2018-12-05T00:34:10.230Z,1.52
2018-12-05T00:34:10.827Z,1.51
2018-12-05T00:34:11.426Z,1.50
2018-12-05T00:34:12.032Z,1.51
2018-12-05T00:35:05.506Z,1.61
2018-12-05T00:35:06.080Z,1.62
2018-12-05T00:35:06.681Z,1.50
2018-12-05T00:35:07.282Z,1.61
2018-12-05T00:35:07.880Z,1.51
2018-12-05T00:35:08.479Z,1.58
2018-12-05T00:35:09.080Z,1.57
2018-12-05T00:35:09.681Z,1.57
2018-12-05T00:36:04.182Z,1.55
2018-12-05T00:36:04.756Z,1.60
2018-12-05T00:36:05.356Z,1.60
2018-12-05T00:36:05.958Z,1.61
2018-12-05T00:36:06.555Z,1.58
2018-12-05T00:36:07.154Z,1.60
2018-12-05T00:36:07.754Z,1.57
2018-12-05T00:36:08.354Z,1.57
2018-12-05T00:37:01.836Z,1.57
2018-12-05T00:37:02.409Z,1.60
2018-12-05T00:37:03.008Z,1.57
2018-12-05T00:37:03.607Z,1.62
2018-12-05T00:37:04.207Z,1.57
2018-12-05T00:37:04.807Z,1.60
2018-12-05T00:37:05.407Z,1.57
2018-12-05T00:37:06.008Z,1.57
2018-12-05T00:37:59.506Z,1.58
2018-12-05T00:38:00.060Z,1.60
2018-12-05T00:38:00.659Z,1.54
2018-12-05T00:38:01.262Z,1.58
2018-12-05T00:38:01.859Z,1.54
2018-12-05T00:38:02.459Z,1.51
2018-12-05T00:38:03.059Z,1.57
2018-12-05T00:38:03.660Z,1.51
2018-12-05T00:38:58.161Z,1.51
2018-12-05T00:38:58.736Z,1.52
2018-12-05T00:38:59.335Z,1.52
2018-12-05T00:38:59.935Z,1.58
2018-12-05T00:39:00.535Z,1.57
2018-12-05T00:39:01.135Z,1.64
2018-12-05T00:39:01.736Z,1.61
2018-12-05T00:39:02.334Z,1.54
2018-12-05T00:39:55.816Z,1.52
2018-12-05T00:39:56.389Z,1.58
2018-12-05T00:39:56.987Z,1.52
2018-12-05T00:39:57.588Z,1.52
2018-12-05T00:39:58.188Z,1.55
2018-12-05T00:39:58.787Z,1.54
2018-12-05T00:39:59.390Z,1.54
2018-12-05T00:39:59.988Z,1.64
2018-12-05T00:40:53.467Z,1.64
2018-12-05T00:40:54.040Z,1.58
2018-12-05T00:40:54.640Z,1.61
2018-12-05T00:40:55.240Z,1.65
2018-12-05T00:40:55.839Z,1.68
2018-12-05T00:40:56.442Z,1.68
2018-12-05T00:40:57.038Z,1.64
2018-12-05T00:40:57.640Z,1.62
2018-12-05T00:41:51.120Z,1.58
2018-12-05T00:41:51.692Z,1.60
2018-12-05T00:41:52.292Z,1.61
2018-12-05T00:41:52.891Z,1.65
2018-12-05T00:41:53.491Z,1.62
2018-12-05T00:41:54.090Z,1.65
2018-12-05T00:41:54.692Z,1.61
2018-12-05T00:41:55.292Z,1.65
2018-12-05T00:42:49.797Z,1.58
2018-12-05T00:42:50.367Z,1.61
2018-12-05T00:42:50.966Z,1.62
2018-12-05T00:42:51.567Z,1.57
2018-12-05T00:42:52.166Z,1.72
2018-12-05T00:42:52.766Z,1.69
2018-12-05T00:42:53.366Z,1.65
2018-12-05T00:42:53.967Z,1.62
2018-12-05T00:43:48.468Z,1.62
2018-12-05T00:43:49.042Z,1.62
2018-12-05T00:43:49.642Z,1.69
2018-12-05T00:43:50.241Z,1.64
2018-12-05T00:43:50.841Z,1.64
2018-12-05T00:43:51.441Z,1.68
2018-12-05T00:43:52.131Z,1.61
2018-12-05T00:43:52.642Z,1.61
2018-12-05T00:44:47.144Z,1.69
2018-12-05T00:44:47.717Z,1.72
2018-12-05T00:44:48.318Z,1.71
2018-12-05T00:44:48.917Z,1.65
2018-12-05T00:44:49.518Z,1.75
2018-12-05T00:44:50.117Z,1.65
2018-12-05T00:44:50.716Z,1.62
2018-12-05T00:44:51.318Z,1.65
2018-12-05T00:45:44.797Z,1.69
2018-12-05T00:45:45.370Z,1.76
2018-12-05T00:45:45.971Z,1.71
2018-12-05T00:45:46.573Z,1.71
2018-12-05T00:45:47.170Z,1.71
2018-12-05T00:45:47.770Z,1.68
2018-12-05T00:45:48.370Z,1.76
2018-12-05T00:45:48.970Z,1.76
2018-12-05T00:46:42.450Z,1.79
2018-12-05T00:46:43.022Z,1.71
2018-12-05T00:46:43.623Z,1.69
2018-12-05T00:46:44.222Z,1.73
2018-12-05T00:46:44.821Z,1.75
2018-12-05T00:46:45.422Z,1.71
2018-12-05T00:46:46.021Z,1.73
2018-12-05T00:46:46.621Z,1.65
2018-12-05T00:47:40.101Z,1.71
2018-12-05T00:47:40.676Z,1.64
2018-12-05T00:47:41.277Z,1.75
2018-12-05T00:47:41.874Z,1.72
2018-12-05T00:47:42.475Z,1.68
2018-12-05T00:47:43.074Z,1.71
2018-12-05T00:47:43.674Z,1.69
2018-12-05T00:47:44.273Z,1.72
2018-12-05T00:48:37.752Z,1.69
2018-12-05T00:48:38.326Z,1.71
2018-12-05T00:48:38.924Z,1.61
2018-12-05T00:48:39.528Z,1.73
2018-12-05T00:48:40.128Z,1.72
2018-12-05T00:48:40.724Z,1.65
2018-12-05T00:48:41.326Z,1.71
2018-12-05T00:48:42.017Z,1.62
2018-12-05T00:49:36.430Z,1.65
2018-12-05T00:49:37.000Z,1.76
2018-12-05T00:49:37.601Z,1.75
2018-12-05T00:49:38.201Z,1.72
2018-12-05T00:49:38.800Z,1.69
2018-12-05T00:49:39.401Z,1.72
2018-12-05T00:49:40.000Z,1.72
2018-12-05T00:49:40.600Z,1.80
2018-12-05T00:50:35.103Z,1.75
2018-12-05T00:50:35.677Z,1.72
2018-12-05T00:50:36.275Z,1.72
2018-12-05T00:50:36.881Z,1.73
2018-12-05T00:50:37.476Z,1.73
2018-12-05T00:50:38.075Z,1.73
2018-12-05T00:50:38.674Z,1.72
2018-12-05T00:50:39.275Z,1.72
2018-12-05T00:51:33.780Z,1.71
2018-12-05T00:51:34.352Z,1.71
2018-12-05T00:51:34.951Z,1.71
2018-12-05T00:51:35.552Z,1.78
2018-12-05T00:51:36.155Z,1.65
2018-12-05T00:51:36.752Z,1.62
2018-12-05T00:51:37.352Z,1.71
2018-12-05T00:51:37.951Z,1.78
2018-12-05T00:52:31.431Z,1.78
2018-12-05T00:52:32.008Z,1.78
2018-12-05T00:52:32.605Z,1.68
2018-12-05T00:52:33.204Z,1.75
2018-12-05T00:52:33.804Z,1.79
2018-12-05T00:52:34.404Z,1.76
2018-12-05T00:52:35.004Z,1.65
2018-12-05T00:52:35.603Z,1.75
2018-12-05T00:53:29.082Z,1.76
2018-12-05T00:53:29.657Z,1.65
2018-12-05T00:53:30.256Z,1.71
2018-12-05T00:53:30.858Z,1.76
2018-12-05T00:53:31.457Z,1.76
2018-12-05T00:53:32.058Z,1.78
2018-12-05T00:53:32.656Z,1.68
2018-12-05T00:53:33.263Z,1.75
2018-12-05T00:54:27.759Z,1.78
2018-12-05T00:54:28.331Z,1.78
2018-12-05T00:54:28.931Z,1.79
2018-12-05T00:54:29.536Z,1.72
2018-12-05T00:54:30.131Z,1.72
2018-12-05T00:54:30.731Z,1.69
2018-12-05T00:54:31.331Z,1.75
2018-12-05T00:54:31.931Z,1.68
2018-12-05T00:55:26.434Z,1.68
2018-12-05T00:55:27.008Z,1.71
2018-12-05T00:55:27.608Z,1.61
2018-12-05T00:55:28.207Z,1.72
2018-12-05T00:55:28.808Z,1.75
2018-12-05T00:55:29.407Z,1.62
2018-12-05T00:55:30.007Z,1.73
2018-12-05T00:55:30.608Z,1.75
2018-12-05T00:56:25.112Z,1.76
2018-12-05T00:56:25.684Z,1.76
2018-12-05T00:56:26.283Z,1.69
2018-12-05T00:56:26.888Z,1.72
2018-12-05T00:56:27.482Z,1.65
2018-12-05T00:56:28.081Z,1.76
2018-12-05T00:56:28.683Z,1.76
2018-12-05T00:56:29.282Z,1.76
2018-12-05T00:57:22.765Z,1.75
2018-12-05T00:57:23.337Z,1.75
2018-12-05T00:57:23.936Z,1.72
2018-12-05T00:57:24.539Z,1.72
2018-12-05T00:57:25.134Z,1.72
2018-12-05T00:57:25.734Z,1.76
2018-12-05T00:57:26.334Z,1.76
2018-12-05T00:57:26.933Z,1.68
2018-12-05T00:58:20.415Z,1.71
2018-12-05T00:58:20.988Z,1.65
2018-12-05T00:58:21.586Z,1.72
2018-12-05T00:58:22.186Z,1.71
2018-12-05T00:58:22.787Z,1.71
2018-12-05T00:58:23.386Z,1.73
2018-12-05T00:58:23.986Z,1.76
2018-12-05T00:58:24.588Z,1.72
2018-12-05T00:59:19.103Z,1.71
2018-12-05T00:59:19.664Z,1.73
2018-12-05T00:59:20.265Z,1.76
2018-12-05T00:59:20.864Z,1.73
2018-12-05T00:59:21.464Z,1.82
2018-12-05T00:59:22.065Z,1.87
2018-12-05T00:59:22.664Z,1.82
2018-12-05T00:59:23.263Z,1.75
2018-12-05T01:00:17.765Z,1.80
2018-12-05T01:00:18.339Z,1.83
2018-12-05T01:00:18.940Z,1.87
2018-12-05T01:00:19.536Z,1.87
2018-12-05T01:00:20.138Z,1.87
2018-12-05T01:00:20.737Z,1.79
2018-12-05T01:00:21.427Z,1.72
2018-12-05T01:00:21.936Z,1.82
2018-12-05T01:01:15.415Z,1.73
2018-12-05T01:01:15.990Z,1.87
2018-12-05T01:01:16.589Z,1.87
2018-12-05T01:01:17.190Z,1.78
2018-12-05T01:01:17.843Z,1.87
2018-12-05T01:01:18.389Z,1.75
2018-12-05T01:01:18.989Z,1.78
2018-12-05T01:01:19.589Z,1.87
2018-12-05T01:02:14.091Z,1.73
2018-12-05T01:02:14.665Z,1.75
2018-12-05T01:02:15.264Z,1.89
2018-12-05T01:02:15.866Z,1.87
2018-12-05T01:02:16.465Z,1.82
2018-12-05T01:02:17.068Z,1.80
2018-12-05T01:02:17.664Z,1.78
2018-12-05T01:02:18.264Z,1.76
2018-12-05T01:03:11.745Z,1.73
2018-12-05T01:03:12.318Z,1.72
2018-12-05T01:03:12.918Z,1.79
2018-12-05T01:03:13.518Z,1.75
2018-12-05T01:03:14.118Z,1.79
2018-12-05T01:03:14.718Z,1.89
2018-12-05T01:03:15.317Z,1.83
2018-12-05T01:03:15.917Z,1.87
2018-12-05T01:04:10.420Z,1.69
2018-12-05T01:04:10.993Z,1.76
2018-12-05T01:04:11.592Z,1.76
2018-12-05T01:04:12.193Z,1.83
2018-12-05T01:04:12.792Z,1.79
2018-12-05T01:04:13.391Z,1.80
2018-12-05T01:04:13.992Z,1.82
2018-12-05T01:04:14.592Z,1.73
2018-12-05T01:05:08.076Z,1.72
2018-12-05T01:05:08.648Z,1.76
2018-12-05T01:05:09.246Z,1.76
2018-12-05T01:05:09.845Z,1.79
2018-12-05T01:05:10.445Z,1.72
2018-12-05T01:05:11.044Z,1.82
2018-12-05T01:05:11.645Z,1.76
2018-12-05T01:05:12.244Z,1.87
2018-12-05T01:06:05.724Z,1.65
2018-12-05T01:06:06.344Z,1.73
2018-12-05T01:06:06.897Z,1.65
2018-12-05T01:06:07.497Z,1.83
2018-12-05T01:06:08.097Z,1.76
2018-12-05T01:06:08.696Z,1.73
2018-12-05T01:06:09.296Z,1.79
2018-12-05T01:06:09.896Z,1.71
2018-12-05T01:07:03.375Z,1.68
2018-12-05T01:07:03.948Z,1.65
2018-12-05T01:07:04.548Z,1.73
2018-12-05T01:07:05.149Z,1.78
2018-12-05T01:07:05.747Z,1.71
2018-12-05T01:07:06.349Z,1.72
2018-12-05T01:07:06.948Z,1.72
2018-12-05T01:07:07.547Z,1.65
2018-12-05T01:08:02.050Z,1.65
2018-12-05T01:08:02.623Z,1.65
2018-12-05T01:08:03.225Z,1.72
2018-12-05T01:08:03.825Z,1.73
2018-12-05T01:08:04.423Z,1.65
2018-12-05T01:08:05.023Z,1.69
2018-12-05T01:08:05.623Z,1.64
2018-12-05T01:08:06.222Z,1.80
2018-12-05T01:09:00.726Z,1.75
2018-12-05T01:09:01.300Z,1.73
2018-12-05T01:09:01.901Z,1.65
2018-12-05T01:09:02.500Z,1.64
2018-12-05T01:09:03.101Z,1.73
2018-12-05T01:09:03.765Z,1.68
2018-12-05T01:09:04.299Z,1.80
2018-12-05T01:09:04.899Z,1.75
2018-12-05T01:09:59.402Z,1.69
2018-12-05T01:10:00.049Z,1.71
2018-12-05T01:10:00.574Z,1.62
2018-12-05T01:10:01.174Z,1.72
2018-12-05T01:10:01.774Z,1.69
2018-12-05T01:10:02.374Z,1.71
2018-12-05T01:10:02.974Z,1.64
2018-12-05T01:10:03.574Z,1.76
2018-12-05T01:10:57.056Z,1.71
2018-12-05T01:10:57.631Z,1.69
2018-12-05T01:10:58.240Z,1.71
2018-12-05T01:10:58.827Z,1.71
2018-12-05T01:10:59.428Z,1.68
2018-12-05T01:11:00.027Z,1.75
2018-12-05T01:11:00.626Z,1.71
2018-12-05T01:11:01.227Z,1.61
2018-12-05T01:11:54.706Z,1.76
2018-12-05T01:11:55.279Z,1.73
2018-12-05T01:11:55.879Z,1.76
2018-12-05T01:11:56.480Z,1.72
2018-12-05T01:11:57.078Z,1.71
2018-12-05T01:11:57.677Z,1.73
2018-12-05T01:11:58.282Z,1.71
2018-12-05T01:11:58.879Z,1.68
2018-12-05T01:12:53.381Z,1.72
2018-12-05T01:12:53.953Z,1.65
2018-12-05T01:12:54.555Z,1.71
2018-12-05T01:12:55.156Z,1.73
2018-12-05T01:12:55.752Z,1.69
2018-12-05T01:12:56.355Z,1.68
2018-12-05T01:12:56.956Z,1.64
2018-12-05T01:12:57.554Z,1.68
2018-12-05T01:13:52.057Z,1.69
2018-12-05T01:13:52.630Z,1.65
2018-12-05T01:13:53.228Z,1.68
2018-12-05T01:13:53.829Z,1.75
2018-12-05T01:13:54.429Z,1.65
2018-12-05T01:13:55.028Z,1.68
2018-12-05T01:13:55.629Z,1.65
2018-12-05T01:13:56.231Z,1.69
2018-12-05T01:14:49.709Z,1.68
2018-12-05T01:14:50.281Z,1.71
2018-12-05T01:14:50.883Z,1.72
2018-12-05T01:14:51.482Z,1.65
2018-12-05T01:14:52.085Z,1.72
2018-12-05T01:14:52.682Z,1.65
2018-12-05T01:14:53.282Z,1.64
2018-12-05T01:14:53.888Z,1.65
2018-12-05T01:15:47.360Z,1.69
2018-12-05T01:15:47.934Z,1.62
2018-12-05T01:15:48.534Z,1.65
2018-12-05T01:15:49.133Z,1.65
2018-12-05T01:15:49.733Z,1.62
2018-12-05T01:15:50.333Z,1.65
2018-12-05T01:15:50.933Z,1.68
2018-12-05T01:15:51.533Z,1.64
2018-12-05T01:16:45.013Z,1.64
2018-12-05T01:16:45.586Z,1.64
2018-12-05T01:16:46.196Z,1.68
2018-12-05T01:16:46.785Z,1.64
2018-12-05T01:16:47.385Z,1.64
2018-12-05T01:16:47.986Z,1.71
2018-12-05T01:16:48.585Z,1.69
2018-12-05T01:16:49.184Z,1.72
2018-12-05T01:17:42.667Z,1.61
2018-12-05T01:17:43.237Z,1.62
2018-12-05T01:17:43.837Z,1.71
2018-12-05T01:17:44.438Z,1.68
2018-12-05T01:17:45.037Z,1.64
2018-12-05T01:17:45.636Z,1.62
2018-12-05T01:17:46.236Z,1.65
2018-12-05T01:17:46.836Z,1.69
2018-12-05T01:18:41.339Z,1.62
2018-12-05T01:18:41.913Z,1.69
2018-12-05T01:18:42.512Z,1.62
2018-12-05T01:18:43.111Z,1.61
2018-12-05T01:18:43.711Z,1.69
2018-12-05T01:18:44.311Z,1.68
2018-12-05T01:18:44.916Z,1.69
2018-12-05T01:18:45.512Z,1.71
2018-12-05T01:19:40.017Z,1.62
2018-12-05T01:19:40.588Z,1.69
2018-12-05T01:19:41.190Z,1.68
2018-12-05T01:19:41.788Z,1.62
2018-12-05T01:19:42.388Z,1.68
2018-12-05T01:19:42.987Z,1.65
2018-12-05T01:19:43.587Z,1.62
2018-12-05T01:19:44.187Z,1.61
2018-12-05T01:20:38.691Z,1.62
2018-12-05T01:20:39.262Z,1.65
2018-12-05T01:20:39.863Z,1.64
2018-12-05T01:20:40.464Z,1.64
2018-12-05T01:20:41.062Z,1.69
2018-12-05T01:20:41.664Z,1.68
2018-12-05T01:20:42.263Z,1.72
2018-12-05T01:20:42.863Z,1.64
2018-12-05T01:21:37.368Z,1.60
2018-12-05T01:21:37.939Z,1.65
2018-12-05T01:21:38.606Z,1.60
2018-12-05T01:21:39.144Z,1.61
2018-12-05T01:21:39.742Z,1.68
2018-12-05T01:21:40.338Z,1.68
2018-12-05T01:21:40.938Z,1.62
2018-12-05T01:21:41.539Z,1.69
2018-12-05T01:22:35.021Z,1.58
2018-12-05T01:22:35.591Z,1.65
2018-12-05T01:22:36.192Z,1.60
2018-12-05T01:22:36.793Z,1.68
2018-12-05T01:22:37.391Z,1.64
2018-12-05T01:22:37.991Z,1.64
2018-12-05T01:22:38.592Z,1.64
2018-12-05T01:22:39.190Z,1.65
2018-12-05T01:23:33.697Z,1.60
2018-12-05T01:23:34.267Z,1.64
2018-12-05T01:23:34.867Z,1.65
2018-12-05T01:23:35.466Z,1.64
2018-12-05T01:23:36.065Z,1.65
2018-12-05T01:23:36.666Z,1.62
2018-12-05T01:23:37.265Z,1.54
2018-12-05T01:23:37.865Z,1.62
2018-12-05T01:24:32.370Z,1.51
2018-12-05T01:24:32.946Z,1.54
2018-12-05T01:24:33.542Z,1.61
2018-12-05T01:24:34.144Z,1.62
2018-12-05T01:24:34.742Z,1.62
2018-12-05T01:24:35.341Z,1.68
2018-12-05T01:24:35.941Z,1.65
2018-12-05T01:24:36.541Z,1.54
2018-12-05T01:25:31.045Z,1.58
2018-12-05T01:25:31.619Z,1.64
2018-12-05T01:25:32.218Z,1.58
2018-12-05T01:25:32.817Z,1.61
2018-12-05T01:25:33.417Z,1.62
2018-12-05T01:25:34.023Z,1.69
2018-12-05T01:25:34.616Z,1.64
2018-12-05T01:25:35.216Z,1.65
2018-12-05T01:26:29.723Z,1.54
2018-12-05T01:26:30.295Z,1.54
2018-12-05T01:26:30.894Z,1.52
2018-12-05T01:26:31.495Z,1.52
2018-12-05T01:26:32.093Z,1.58
2018-12-05T01:26:32.693Z,1.62
2018-12-05T01:26:33.293Z,1.55
2018-12-05T01:26:33.893Z,1.52
2018-12-05T01:27:27.374Z,1.54
2018-12-05T01:27:27.946Z,1.52
2018-12-05T01:27:28.547Z,1.62
2018-12-05T01:27:29.145Z,1.58
2018-12-05T01:27:29.745Z,1.51
2018-12-05T01:27:30.346Z,1.54
2018-12-05T01:27:30.945Z,1.51
2018-12-05T01:27:31.545Z,1.65
2018-12-05T01:28:26.051Z,1.54
2018-12-05T01:28:26.623Z,1.55
2018-12-05T01:28:27.223Z,1.55
2018-12-05T01:28:27.821Z,1.52
2018-12-05T01:28:28.420Z,1.52
2018-12-05T01:28:29.020Z,1.57
2018-12-05T01:28:29.619Z,1.51
2018-12-05T01:28:30.219Z,1.55
2018-12-05T01:29:23.704Z,1.55
2018-12-05T01:29:24.274Z,1.61
2018-12-05T01:29:24.880Z,1.52
2018-12-05T01:29:25.474Z,1.51
2018-12-05T01:29:26.074Z,1.52
2018-12-05T01:29:26.674Z,1.51
2018-12-05T01:29:27.273Z,1.60
2018-12-05T01:29:27.873Z,1.57
2018-12-05T01:30:21.354Z,1.55
2018-12-05T01:30:21.927Z,1.54
2018-12-05T01:30:22.525Z,1.55
2018-12-05T01:30:23.124Z,1.65
2018-12-05T01:30:23.725Z,1.58
2018-12-05T01:30:24.326Z,1.52
2018-12-05T01:30:24.925Z,1.57
2018-12-05T01:30:25.525Z,1.57
2018-12-05T01:31:20.029Z,1.46
2018-12-05T01:31:20.601Z,1.55
2018-12-05T01:31:21.208Z,1.58
2018-12-05T01:31:21.800Z,1.61
2018-12-05T01:31:22.401Z,1.58
2018-12-05T01:31:23.000Z,1.58
2018-12-05T01:31:23.601Z,1.55
2018-12-05T01:31:24.201Z,1.58
2018-12-05T01:32:17.680Z,1.50
2018-12-05T01:32:18.253Z,1.54
2018-12-05T01:32:18.854Z,1.51
2018-12-05T01:32:19.453Z,1.52
2018-12-05T01:32:20.052Z,1.54
2018-12-05T01:32:20.654Z,1.54
2018-12-05T01:32:21.253Z,1.55
2018-12-05T01:32:21.853Z,1.50
2018-12-05T01:33:16.470Z,1.61
2018-12-05T01:33:16.929Z,1.57
2018-12-05T01:33:17.528Z,1.64
2018-12-05T01:33:18.131Z,1.51
2018-12-05T01:33:18.729Z,1.57
2018-12-05T01:33:19.328Z,1.52
2018-12-05T01:33:19.928Z,1.50
2018-12-05T01:33:20.527Z,1.57
2018-12-05T01:34:14.007Z,1.52
2018-12-05T01:34:14.581Z,1.57
2018-12-05T01:34:15.180Z,1.54
2018-12-05T01:34:15.785Z,1.54
2018-12-05T01:34:16.380Z,1.54
2018-12-05T01:34:16.980Z,1.60
2018-12-05T01:34:17.579Z,1.62
2018-12-05T01:34:18.180Z,1.54
2018-12-05T01:35:11.662Z,1.54
2018-12-05T01:35:12.233Z,1.54
2018-12-05T01:35:12.832Z,1.60
2018-12-05T01:35:13.433Z,1.54
2018-12-05T01:35:14.032Z,1.58
2018-12-05T01:35:14.631Z,1.55
2018-12-05T01:35:15.232Z,1.54
2018-12-05T01:35:15.831Z,1.54
2018-12-05T01:36:10.337Z,1.60
2018-12-05T01:36:10.907Z,1.58
2018-12-05T01:36:11.507Z,1.58
2018-12-05T01:36:12.107Z,1.55
2018-12-05T01:36:12.707Z,1.60
2018-12-05T01:36:13.307Z,1.58
2018-12-05T01:36:13.907Z,1.57
2018-12-05T01:36:14.506Z,1.62
2018-12-05T01:37:09.010Z,1.57
2018-12-05T01:37:09.583Z,1.54
2018-12-05T01:37:10.184Z,1.50
2018-12-05T01:37:10.783Z,1.51
2018-12-05T01:37:11.383Z,1.55
2018-12-05T01:37:11.981Z,1.57
2018-12-05T01:37:12.584Z,1.55
2018-12-05T01:37:13.184Z,1.51
2018-12-05T01:38:06.666Z,1.61
2018-12-05T01:38:07.236Z,1.51
2018-12-05T01:38:07.837Z,1.57
2018-12-05T01:38:08.435Z,1.69
2018-12-05T01:38:09.033Z,1.52
2018-12-05T01:38:09.635Z,1.55
2018-12-05T01:38:10.235Z,1.55
2018-12-05T01:38:10.836Z,1.50
2018-12-05T01:39:05.337Z,1.52
2018-12-05T01:39:05.910Z,1.60
2018-12-05T01:39:06.510Z,1.64
2018-12-05T01:39:07.109Z,1.69
2018-12-05T01:39:07.713Z,1.60
2018-12-05T01:39:08.309Z,1.69
2018-12-05T01:39:08.908Z,1.65
2018-12-05T01:39:09.510Z,1.64
2018-12-05T01:40:02.990Z,1.64
2018-12-05T01:40:03.563Z,1.62
2018-12-05T01:40:04.163Z,1.61
2018-12-05T01:40:04.765Z,1.62
2018-12-05T01:40:05.363Z,1.64
2018-12-05T01:40:05.963Z,1.58
2018-12-05T01:40:06.563Z,1.64
2018-12-05T01:40:07.165Z,1.64
2018-12-05T01:41:01.664Z,1.65
2018-12-05T01:41:02.238Z,1.69
2018-12-05T01:41:02.901Z,1.62
2018-12-05T01:41:03.437Z,1.64
2018-12-05T01:41:04.038Z,1.62
2018-12-05T01:41:04.639Z,1.65
2018-12-05T01:41:05.239Z,1.62
2018-12-05T01:41:05.839Z,1.69
2018-12-05T01:42:00.340Z,1.62
2018-12-05T01:42:00.915Z,1.71
2018-12-05T01:42:01.513Z,1.62
2018-12-05T01:42:02.113Z,1.65
2018-12-05T01:42:02.713Z,1.68
2018-12-05T01:42:03.313Z,1.62
2018-12-05T01:42:03.913Z,1.71
2018-12-05T01:42:04.512Z,1.69
2018-12-05T01:42:59.016Z,1.65
2018-12-05T01:42:59.589Z,1.68
2018-12-05T01:43:00.189Z,1.62
2018-12-05T01:43:00.789Z,1.62
2018-12-05T01:43:01.389Z,1.73
2018-12-05T01:43:01.989Z,1.64
2018-12-05T01:43:02.589Z,1.65
2018-12-05T01:43:03.188Z,1.65
2018-12-05T01:43:56.669Z,1.62
2018-12-05T01:43:57.242Z,1.61
2018-12-05T01:43:57.841Z,1.61
2018-12-05T01:43:58.442Z,1.65
2018-12-05T01:43:59.043Z,1.65
2018-12-05T01:43:59.640Z,1.61
2018-12-05T01:44:00.239Z,1.62
2018-12-05T01:44:00.841Z,1.71
2018-12-05T01:44:54.321Z,1.69
2018-12-05T01:44:54.893Z,1.71
2018-12-05T01:44:55.494Z,1.72
2018-12-05T01:44:56.094Z,1.68
2018-12-05T01:44:56.694Z,1.71
2018-12-05T01:44:57.293Z,1.64
2018-12-05T01:44:57.893Z,1.71
2018-12-05T01:44:58.493Z,1.69
2018-12-05T01:45:51.973Z,1.69
2018-12-05T01:45:52.548Z,1.64
2018-12-05T01:45:53.145Z,1.68
2018-12-05T01:45:53.745Z,1.68
2018-12-05T01:45:54.343Z,1.65
2018-12-05T01:45:54.944Z,1.62
2018-12-05T01:45:55.545Z,1.68
2018-12-05T01:45:56.144Z,1.73
2018-12-05T01:46:49.625Z,1.62
2018-12-05T01:46:50.197Z,1.72
2018-12-05T01:46:50.802Z,1.73
2018-12-05T01:46:51.397Z,1.65
2018-12-05T01:46:51.995Z,1.68
2018-12-05T01:46:52.596Z,1.72
2018-12-05T01:46:53.197Z,1.65
2018-12-05T01:46:53.796Z,1.68
2018-12-05T01:47:47.276Z,1.65
2018-12-05T01:47:47.848Z,1.62
2018-12-05T01:47:48.448Z,1.68
2018-12-05T01:47:49.049Z,1.72
2018-12-05T01:47:49.647Z,1.72
2018-12-05T01:47:50.248Z,1.71
2018-12-05T01:47:50.846Z,1.71
2018-12-05T01:47:51.447Z,1.62
2018-12-05T01:48:45.952Z,1.62
2018-12-05T01:48:46.524Z,1.69
2018-12-05T01:48:47.123Z,1.68
2018-12-05T01:48:47.726Z,1.62
2018-12-05T01:48:48.322Z,1.68
2018-12-05T01:48:48.923Z,1.61
2018-12-05T01:48:49.524Z,1.60
2018-12-05T01:48:50.123Z,1.62
2018-12-05T01:49:43.604Z,1.64
2018-12-05T01:49:44.176Z,1.61
2018-12-05T01:49:44.776Z,1.61
2018-12-05T01:49:45.374Z,1.60
2018-12-05T01:49:45.977Z,1.64
2018-12-05T01:49:46.576Z,1.71
2018-12-05T01:49:47.175Z,1.65
2018-12-05T01:49:47.774Z,1.64
2018-12-05T01:50:42.275Z,1.62
2018-12-05T01:50:42.850Z,1.68
2018-12-05T01:50:43.452Z,1.69
2018-12-05T01:50:44.050Z,1.62
2018-12-05T01:50:44.651Z,1.62
2018-12-05T01:50:45.250Z,1.65
2018-12-05T01:50:45.849Z,1.62
2018-12-05T01:50:46.450Z,1.65
2018-12-05T01:51:40.954Z,1.69
2018-12-05T01:51:41.529Z,1.61
2018-12-05T01:51:42.127Z,1.61
2018-12-05T01:51:42.725Z,1.62
2018-12-05T01:51:43.326Z,1.62
2018-12-05T01:51:43.925Z,1.64
2018-12-05T01:51:44.525Z,1.64
2018-12-05T01:51:45.131Z,1.62
2018-12-05T01:52:38.607Z,1.55
2018-12-05T01:52:39.179Z,1.64
2018-12-05T01:52:39.778Z,1.65
2018-12-05T01:52:40.379Z,1.65
2018-12-05T01:52:40.978Z,1.64
2018-12-05T01:52:41.582Z,1.68
2018-12-05T01:52:42.177Z,1.65
2018-12-05T01:52:42.777Z,1.60
2018-12-05T01:53:36.257Z,1.62
2018-12-05T01:53:36.831Z,1.65
2018-12-05T01:53:37.430Z,1.68
2018-12-05T01:53:38.033Z,1.65
2018-12-05T01:53:38.630Z,1.62
2018-12-05T01:53:39.229Z,1.60
2018-12-05T01:53:39.830Z,1.69
2018-12-05T01:53:40.430Z,1.60
2018-12-05T01:54:34.932Z,1.65
2018-12-05T01:54:35.507Z,1.68
2018-12-05T01:54:36.106Z,1.73
2018-12-05T01:54:36.707Z,1.75
2018-12-05T01:54:37.305Z,1.72
2018-12-05T01:54:37.905Z,1.71
2018-12-05T01:54:38.506Z,1.69
2018-12-05T01:54:39.104Z,1.78
2018-12-05T01:55:32.589Z,1.69
2018-12-05T01:55:33.159Z,1.65
2018-12-05T01:55:33.757Z,1.71
2018-12-05T01:55:34.358Z,1.69
2018-12-05T01:55:34.958Z,1.65
2018-12-05T01:55:35.558Z,1.69
2018-12-05T01:55:36.157Z,1.72
2018-12-05T01:55:36.757Z,1.68
2018-12-05T03:39:37.738Z,1.10
2018-12-05T03:39:38.236Z,1.21
2018-12-05T03:39:38.836Z,1.16
2018-12-05T03:39:39.434Z,1.16
2018-12-05T03:39:40.037Z,1.15
2018-12-05T03:39:40.635Z,1.21
2018-12-05T03:39:41.234Z,1.25
2018-12-05T03:39:41.835Z,1.18
2018-12-05T03:39:42.434Z,1.19
2018-12-05T03:39:43.033Z,1.18
2018-12-05T03:40:37.503Z,1.22
2018-12-05T03:40:38.078Z,1.15
2018-12-05T03:40:38.677Z,1.21
2018-12-05T03:40:39.282Z,1.21
2018-12-05T03:40:39.876Z,1.19
2018-12-05T03:40:40.476Z,1.16
2018-12-05T03:40:41.074Z,1.19
2018-12-05T03:40:41.675Z,1.19
2018-12-05T03:41:36.179Z,1.10
2018-12-05T03:41:36.753Z,1.12
2018-12-05T03:41:37.353Z,1.18
2018-12-05T03:41:37.952Z,1.12
2018-12-05T03:41:38.552Z,1.19
2018-12-05T03:41:39.154Z,1.10
2018-12-05T03:41:39.751Z,1.19
2018-12-05T03:41:40.351Z,1.21
2018-12-05T03:42:33.830Z,1.07
2018-12-05T03:42:34.407Z,1.21
2018-12-05T03:42:35.004Z,1.19
2018-12-05T03:42:35.605Z,1.06
2018-12-05T03:42:36.207Z,1.12
2018-12-05T03:42:36.803Z,1.08
2018-12-05T03:42:37.402Z,1.16
2018-12-05T03:42:38.003Z,1.07
2018-12-05T03:43:32.506Z,1.07
2018-12-05T03:43:33.079Z,1.10
2018-12-05T03:43:33.680Z,1.08
2018-12-05T03:43:34.280Z,1.08
2018-12-05T03:43:34.880Z,1.06
2018-12-05T03:43:35.479Z,1.07
2018-12-05T03:43:36.079Z,1.08
2018-12-05T03:43:36.679Z,1.08
2018-12-05T03:44:31.241Z,1.10
2018-12-05T03:44:31.756Z,1.07
2018-12-05T03:44:32.355Z,1.10
2018-12-05T03:44:32.954Z,1.07
2018-12-05T03:44:33.564Z,1.07
2018-12-05T03:44:34.156Z,1.18
2018-12-05T03:44:34.756Z,1.12
2018-12-05T03:44:35.356Z,1.07
2018-12-05T03:45:28.833Z,1.08
2018-12-05T03:45:29.412Z,1.18
2018-12-05T03:45:31.590Z,1.15
2018-12-05T03:45:31.616Z,1.08
2018-12-05T03:45:31.671Z,1.14
2018-12-05T03:45:31.873Z,1.10
2018-12-05T03:45:32.409Z,1.10
2018-12-05T03:45:33.014Z,1.10
2018-12-05T03:46:27.509Z,1.10
2018-12-05T03:46:28.084Z,1.06
2018-12-05T03:46:28.684Z,1.15
2018-12-05T03:46:29.283Z,1.14
2018-12-05T03:46:29.883Z,1.10
2018-12-05T03:46:30.483Z,1.12
2018-12-05T03:46:31.083Z,1.06
2018-12-05T03:46:31.682Z,1.08
2018-12-05T03:47:26.184Z,1.12
2018-12-05T03:47:26.759Z,1.18
2018-12-05T03:47:27.362Z,1.18
2018-12-05T03:47:27.958Z,1.06
2018-12-05T03:47:28.559Z,1.10
2018-12-05T03:47:29.158Z,1.19
2018-12-05T03:47:29.762Z,1.22
2018-12-05T03:47:30.359Z,1.15
2018-12-05T03:48:23.838Z,1.18
2018-12-05T03:48:24.413Z,1.14
2018-12-05T03:48:25.011Z,1.24
2018-12-05T03:48:25.613Z,1.21
2018-12-05T03:48:26.210Z,1.10